sensor_id;sensor_type;location;lat;lon;timestamp;P1;durP1;ratioP1;P2;durP2;ratioP2
51764;SDS011;37835;53.256;6.456;2024-02-26T00:01:01;20.58;;;14.25;;
51764;SDS011;37835;53.256;6.456;2024-02-26T00:03:28;21.08;;;14.80;;
51764;SDS011;37835;53.256;6.456;2024-02-26T00:05:53;21.35;;;14.43;;
51764;SDS011;37835;53.256;6.456;2024-02-26T00:08:21;23.08;;;15.35;;
51764;SDS011;37835;53.256;6.456;2024-02-26T00:10:46;19.80;;;13.52;;
51764;SDS011;37835;53.256;6.456;2024-02-26T00:13:12;24.17;;;13.88;;
51764;SDS011;37835;53.256;6.456;2024-02-26T00:15:40;21.83;;;14.60;;
51764;SDS011;37835;53.256;6.456;2024-02-26T00:18:06;23.33;;;14.07;;
51764;SDS011;37835;53.256;6.456;2024-02-26T00:20:32;20.45;;;13.75;;
51764;SDS011;37835;53.256;6.456;2024-02-26T00:22:58;19.80;;;13.35;;
51764;SDS011;37835;53.256;6.456;2024-02-26T00:25:23;19.90;;;13.07;;
51764;SDS011;37835;53.256;6.456;2024-02-26T00:27:49;18.00;;;12.55;;
51764;SDS011;37835;53.256;6.456;2024-02-26T00:30:14;20.15;;;13.88;;
51764;SDS011;37835;53.256;6.456;2024-02-26T00:32:40;20.10;;;13.27;;
51764;SDS011;37835;53.256;6.456;2024-02-26T00:35:06;19.98;;;13.30;;
51764;SDS011;37835;53.256;6.456;2024-02-26T00:37:32;16.58;;;12.25;;
51764;SDS011;37835;53.256;6.456;2024-02-26T00:39:57;17.67;;;12.95;;
51764;SDS011;37835;53.256;6.456;2024-02-26T00:42:23;18.65;;;12.35;;
51764;SDS011;37835;53.256;6.456;2024-02-26T00:44:49;20.55;;;12.98;;
51764;SDS011;37835;53.256;6.456;2024-02-26T00:47:14;16.75;;;12.25;;
51764;SDS011;37835;53.256;6.456;2024-02-26T00:49:43;21.02;;;12.80;;
51764;SDS011;37835;53.256;6.456;2024-02-26T00:52:08;17.23;;;12.07;;
51764;SDS011;37835;53.256;6.456;2024-02-26T00:54:34;17.05;;;11.77;;
51764;SDS011;37835;53.256;6.456;2024-02-26T00:57:00;15.45;;;11.23;;
51764;SDS011;37835;53.256;6.456;2024-02-26T00:59:25;16.88;;;11.93;;
51764;SDS011;37835;53.256;6.456;2024-02-26T01:01:51;18.33;;;11.48;;
51764;SDS011;37835;53.256;6.456;2024-02-26T01:04:16;13.63;;;11.02;;
51764;SDS011;37835;53.256;6.456;2024-02-26T01:06:42;12.88;;;10.18;;
51764;SDS011;37835;53.256;6.456;2024-02-26T01:09:08;16.13;;;10.05;;
51764;SDS011;37835;53.256;6.456;2024-02-26T01:11:34;12.15;;;9.07;;
51764;SDS011;37835;53.256;6.456;2024-02-26T01:13:59;11.15;;;9.55;;
51764;SDS011;37835;53.256;6.456;2024-02-26T01:16:25;11.93;;;9.52;;
51764;SDS011;37835;53.256;6.456;2024-02-26T01:18:53;11.15;;;9.13;;
51764;SDS011;37835;53.256;6.456;2024-02-26T01:21:19;14.10;;;9.43;;
51764;SDS011;37835;53.256;6.456;2024-02-26T01:23:45;11.95;;;8.50;;
51764;SDS011;37835;53.256;6.456;2024-02-26T01:26:12;11.10;;;8.70;;
51764;SDS011;37835;53.256;6.456;2024-02-26T01:28:38;8.85;;;7.50;;
51764;SDS011;37835;53.256;6.456;2024-02-26T01:31:04;12.20;;;8.98;;
51764;SDS011;37835;53.256;6.456;2024-02-26T01:33:32;12.10;;;8.30;;
51764;SDS011;37835;53.256;6.456;2024-02-26T01:35:57;12.93;;;8.60;;
51764;SDS011;37835;53.256;6.456;2024-02-26T01:38:23;11.18;;;8.45;;
51764;SDS011;37835;53.256;6.456;2024-02-26T01:40:49;13.73;;;9.13;;
51764;SDS011;37835;53.256;6.456;2024-02-26T01:43:14;11.35;;;9.20;;
51764;SDS011;37835;53.256;6.456;2024-02-26T01:45:40;11.32;;;8.77;;
51764;SDS011;37835;53.256;6.456;2024-02-26T01:48:06;13.52;;;9.63;;
51764;SDS011;37835;53.256;6.456;2024-02-26T01:50:35;13.75;;;9.80;;
51764;SDS011;37835;53.256;6.456;2024-02-26T01:53:03;12.20;;;9.30;;
51764;SDS011;37835;53.256;6.456;2024-02-26T01:55:30;11.23;;;9.32;;
51764;SDS011;37835;53.256;6.456;2024-02-26T01:57:56;12.13;;;9.75;;
51764;SDS011;37835;53.256;6.456;2024-02-26T02:00:22;13.45;;;10.35;;
51764;SDS011;37835;53.256;6.456;2024-02-26T02:02:48;11.93;;;9.43;;
51764;SDS011;37835;53.256;6.456;2024-02-26T02:05:17;13.93;;;9.88;;
51764;SDS011;37835;53.256;6.456;2024-02-26T02:07:45;13.23;;;10.32;;
51764;SDS011;37835;53.256;6.456;2024-02-26T02:10:14;13.27;;;9.13;;
51764;SDS011;37835;53.256;6.456;2024-02-26T02:12:43;10.68;;;8.65;;
51764;SDS011;37835;53.256;6.456;2024-02-26T02:15:09;14.88;;;8.57;;
51764;SDS011;37835;53.256;6.456;2024-02-26T02:17:35;12.43;;;8.32;;
51764;SDS011;37835;53.256;6.456;2024-02-26T02:20:01;10.90;;;7.82;;
51764;SDS011;37835;53.256;6.456;2024-02-26T02:22:27;12.75;;;7.97;;
51764;SDS011;37835;53.256;6.456;2024-02-26T02:24:53;8.13;;;7.28;;
51764;SDS011;37835;53.256;6.456;2024-02-26T02:27:19;8.90;;;7.70;;
51764;SDS011;37835;53.256;6.456;2024-02-26T02:29:46;9.23;;;7.28;;
51764;SDS011;37835;53.256;6.456;2024-02-26T02:32:13;10.70;;;7.32;;
51764;SDS011;37835;53.256;6.456;2024-02-26T02:34:39;9.65;;;6.95;;
51764;SDS011;37835;53.256;6.456;2024-02-26T02:37:06;8.43;;;6.72;;
51764;SDS011;37835;53.256;6.456;2024-02-26T02:39:31;7.80;;;6.47;;
51764;SDS011;37835;53.256;6.456;2024-02-26T02:41:57;7.60;;;6.85;;
51764;SDS011;37835;53.256;6.456;2024-02-26T02:44:23;9.00;;;6.50;;
51764;SDS011;37835;53.256;6.456;2024-02-26T02:46:49;9.32;;;6.78;;
51764;SDS011;37835;53.256;6.456;2024-02-26T02:49:18;9.20;;;6.82;;
51764;SDS011;37835;53.256;6.456;2024-02-26T02:51:45;10.90;;;6.47;;
51764;SDS011;37835;53.256;6.456;2024-02-26T02:54:11;9.45;;;6.97;;
51764;SDS011;37835;53.256;6.456;2024-02-26T02:56:36;8.23;;;6.25;;
51764;SDS011;37835;53.256;6.456;2024-02-26T02:59:02;9.07;;;6.60;;
51764;SDS011;37835;53.256;6.456;2024-02-26T03:01:28;9.20;;;6.70;;
51764;SDS011;37835;53.256;6.456;2024-02-26T03:03:54;8.55;;;6.30;;
51764;SDS011;37835;53.256;6.456;2024-02-26T03:06:19;10.45;;;6.15;;
51764;SDS011;37835;53.256;6.456;2024-02-26T03:08:48;6.82;;;5.80;;
51764;SDS011;37835;53.256;6.456;2024-02-26T03:11:14;8.63;;;6.38;;
51764;SDS011;37835;53.256;6.456;2024-02-26T03:13:41;8.30;;;6.43;;
51764;SDS011;37835;53.256;6.456;2024-02-26T03:16:08;7.28;;;5.53;;
51764;SDS011;37835;53.256;6.456;2024-02-26T03:18:33;9.98;;;6.35;;
51764;SDS011;37835;53.256;6.456;2024-02-26T03:21:00;9.07;;;6.43;;
51764;SDS011;37835;53.256;6.456;2024-02-26T03:23:27;6.40;;;5.78;;
51764;SDS011;37835;53.256;6.456;2024-02-26T03:25:57;7.75;;;6.07;;
51764;SDS011;37835;53.256;6.456;2024-02-26T03:28:24;7.85;;;5.55;;
51764;SDS011;37835;53.256;6.456;2024-02-26T03:30:49;8.65;;;6.10;;
51764;SDS011;37835;53.256;6.456;2024-02-26T03:33:15;7.72;;;6.35;;
51764;SDS011;37835;53.256;6.456;2024-02-26T03:35:41;8.85;;;6.60;;
51764;SDS011;37835;53.256;6.456;2024-02-26T03:38:06;8.85;;;6.35;;
51764;SDS011;37835;53.256;6.456;2024-02-26T03:40:32;7.22;;;5.97;;
51764;SDS011;37835;53.256;6.456;2024-02-26T03:42:57;8.52;;;6.45;;
51764;SDS011;37835;53.256;6.456;2024-02-26T03:45:23;9.45;;;5.95;;
51764;SDS011;37835;53.256;6.456;2024-02-26T03:47:50;7.35;;;6.00;;
51764;SDS011;37835;53.256;6.456;2024-02-26T03:50:16;9.52;;;6.13;;
51764;SDS011;37835;53.256;6.456;2024-02-26T03:52:43;9.32;;;5.90;;
51764;SDS011;37835;53.256;6.456;2024-02-26T03:55:10;7.68;;;5.85;;
51764;SDS011;37835;53.256;6.456;2024-02-26T03:57:38;11.60;;;6.40;;
51764;SDS011;37835;53.256;6.456;2024-02-26T04:00:04;9.35;;;5.40;;
51764;SDS011;37835;53.256;6.456;2024-02-26T04:02:31;7.18;;;5.70;;
51764;SDS011;37835;53.256;6.456;2024-02-26T04:04:57;7.63;;;5.47;;
51764;SDS011;37835;53.256;6.456;2024-02-26T04:07:24;10.35;;;5.47;;
51764;SDS011;37835;53.256;6.456;2024-02-26T04:09:49;10.48;;;5.45;;
51764;SDS011;37835;53.256;6.456;2024-02-26T04:12:15;7.90;;;5.75;;
51764;SDS011;37835;53.256;6.456;2024-02-26T04:14:41;7.32;;;5.32;;
51764;SDS011;37835;53.256;6.456;2024-02-26T04:17:06;7.18;;;5.80;;
51764;SDS011;37835;53.256;6.456;2024-02-26T04:19:33;8.75;;;6.28;;
51764;SDS011;37835;53.256;6.456;2024-02-26T04:22:00;8.60;;;5.95;;
51764;SDS011;37835;53.256;6.456;2024-02-26T04:24:27;9.93;;;5.82;;
51764;SDS011;37835;53.256;6.456;2024-02-26T04:26:54;11.18;;;6.65;;
51764;SDS011;37835;53.256;6.456;2024-02-26T04:29:20;10.57;;;7.07;;
51764;SDS011;37835;53.256;6.456;2024-02-26T04:31:47;10.50;;;6.43;;
51764;SDS011;37835;53.256;6.456;2024-02-26T04:34:14;9.25;;;6.82;;
51764;SDS011;37835;53.256;6.456;2024-02-26T04:36:40;14.05;;;6.72;;
51764;SDS011;37835;53.256;6.456;2024-02-26T04:39:06;9.18;;;6.15;;
51764;SDS011;37835;53.256;6.456;2024-02-26T04:41:32;11.52;;;7.00;;
51764;SDS011;37835;53.256;6.456;2024-02-26T04:43:57;11.05;;;6.53;;
51764;SDS011;37835;53.256;6.456;2024-02-26T04:46:23;10.23;;;6.85;;
51764;SDS011;37835;53.256;6.456;2024-02-26T04:48:49;8.57;;;6.28;;
51764;SDS011;37835;53.256;6.456;2024-02-26T04:51:15;12.45;;;6.57;;
51764;SDS011;37835;53.256;6.456;2024-02-26T04:53:41;9.60;;;6.40;;
51764;SDS011;37835;53.256;6.456;2024-02-26T04:56:07;12.73;;;6.53;;
51764;SDS011;37835;53.256;6.456;2024-02-26T04:58:32;7.35;;;6.57;;
51764;SDS011;37835;53.256;6.456;2024-02-26T05:00:58;6.50;;;5.90;;
51764;SDS011;37835;53.256;6.456;2024-02-26T05:03:24;9.63;;;6.50;;
51764;SDS011;37835;53.256;6.456;2024-02-26T05:05:49;8.35;;;5.57;;
51764;SDS011;37835;53.256;6.456;2024-02-26T05:08:15;8.52;;;6.18;;
51764;SDS011;37835;53.256;6.456;2024-02-26T05:10:40;8.82;;;6.30;;
51764;SDS011;37835;53.256;6.456;2024-02-26T05:13:08;6.68;;;5.90;;
51764;SDS011;37835;53.256;6.456;2024-02-26T05:15:34;6.68;;;5.25;;
51764;SDS011;37835;53.256;6.456;2024-02-26T05:18:00;6.18;;;5.53;;
51764;SDS011;37835;53.256;6.456;2024-02-26T05:20:26;9.77;;;5.60;;
51764;SDS011;37835;53.256;6.456;2024-02-26T05:22:52;6.07;;;5.10;;
51764;SDS011;37835;53.256;6.456;2024-02-26T05:25:18;7.55;;;5.70;;
51764;SDS011;37835;53.256;6.456;2024-02-26T05:27:43;6.72;;;4.72;;
51764;SDS011;37835;53.256;6.456;2024-02-26T05:30:10;5.88;;;5.05;;
51764;SDS011;37835;53.256;6.456;2024-02-26T05:32:36;6.35;;;4.70;;
51764;SDS011;37835;53.256;6.456;2024-02-26T05:35:02;5.15;;;4.50;;
51764;SDS011;37835;53.256;6.456;2024-02-26T05:37:29;5.10;;;4.20;;
51764;SDS011;37835;53.256;6.456;2024-02-26T05:39:56;5.28;;;4.63;;
51764;SDS011;37835;53.256;6.456;2024-02-26T05:42:29;5.03;;;4.53;;
51764;SDS011;37835;53.256;6.456;2024-02-26T05:44:55;5.82;;;4.95;;
51764;SDS011;37835;53.256;6.456;2024-02-26T05:47:21;4.97;;;4.57;;
51764;SDS011;37835;53.256;6.456;2024-02-26T05:49:46;5.90;;;4.55;;
51764;SDS011;37835;53.256;6.456;2024-02-26T05:52:13;5.28;;;4.53;;
51764;SDS011;37835;53.256;6.456;2024-02-26T05:54:39;4.43;;;4.03;;
51764;SDS011;37835;53.256;6.456;2024-02-26T05:57:06;4.63;;;4.00;;
51764;SDS011;37835;53.256;6.456;2024-02-26T05:59:32;4.72;;;4.07;;
51764;SDS011;37835;53.256;6.456;2024-02-26T06:01:58;4.95;;;4.53;;
51764;SDS011;37835;53.256;6.456;2024-02-26T06:04:23;5.03;;;4.15;;
51764;SDS011;37835;53.256;6.456;2024-02-26T06:06:49;5.18;;;4.00;;
51764;SDS011;37835;53.256;6.456;2024-02-26T06:09:15;4.75;;;3.72;;
51764;SDS011;37835;53.256;6.456;2024-02-26T06:11:41;5.72;;;4.32;;
51764;SDS011;37835;53.256;6.456;2024-02-26T06:14:07;4.45;;;4.05;;
51764;SDS011;37835;53.256;6.456;2024-02-26T06:16:36;7.55;;;4.43;;
51764;SDS011;37835;53.256;6.456;2024-02-26T06:19:02;4.22;;;3.80;;
51764;SDS011;37835;53.256;6.456;2024-02-26T06:21:28;4.20;;;3.90;;
51764;SDS011;37835;53.256;6.456;2024-02-26T06:23:54;5.10;;;3.88;;
51764;SDS011;37835;53.256;6.456;2024-02-26T06:26:20;4.00;;;3.70;;
51764;SDS011;37835;53.256;6.456;2024-02-26T06:28:47;4.30;;;4.00;;
51764;SDS011;37835;53.256;6.456;2024-02-26T06:31:13;4.30;;;4.00;;
51764;SDS011;37835;53.256;6.456;2024-02-26T06:33:39;4.43;;;3.97;;
51764;SDS011;37835;53.256;6.456;2024-02-26T06:36:05;4.57;;;4.18;;
51764;SDS011;37835;53.256;6.456;2024-02-26T06:38:31;6.30;;;3.67;;
51764;SDS011;37835;53.256;6.456;2024-02-26T06:40:57;4.60;;;4.20;;
51764;SDS011;37835;53.256;6.456;2024-02-26T06:43:22;4.72;;;4.22;;
51764;SDS011;37835;53.256;6.456;2024-02-26T06:45:48;5.60;;;4.70;;
51764;SDS011;37835;53.256;6.456;2024-02-26T06:48:13;5.43;;;4.15;;
51764;SDS011;37835;53.256;6.456;2024-02-26T06:50:39;4.53;;;4.03;;
51764;SDS011;37835;53.256;6.456;2024-02-26T06:53:06;7.45;;;3.60;;
51764;SDS011;37835;53.256;6.456;2024-02-26T06:55:32;4.80;;;3.95;;
51764;SDS011;37835;53.256;6.456;2024-02-26T06:57:58;4.20;;;3.80;;
51764;SDS011;37835;53.256;6.456;2024-02-26T07:00:24;6.38;;;3.00;;
51764;SDS011;37835;53.256;6.456;2024-02-26T07:02:51;3.42;;;2.80;;
51764;SDS011;37835;53.256;6.456;2024-02-26T07:05:18;3.15;;;2.95;;
51764;SDS011;37835;53.256;6.456;2024-02-26T07:07:48;4.07;;;2.83;;
51764;SDS011;37835;53.256;6.456;2024-02-26T07:10:16;3.00;;;2.72;;
51764;SDS011;37835;53.256;6.456;2024-02-26T07:12:43;7.65;;;3.22;;
51764;SDS011;37835;53.256;6.456;2024-02-26T07:15:10;5.45;;;2.70;;
51764;SDS011;37835;53.256;6.456;2024-02-26T07:17:37;4.30;;;3.03;;
51764;SDS011;37835;53.256;6.456;2024-02-26T07:20:07;4.65;;;3.28;;
51764;SDS011;37835;53.256;6.456;2024-02-26T07:22:34;3.80;;;2.92;;
51764;SDS011;37835;53.256;6.456;2024-02-26T07:25:01;5.03;;;3.00;;
51764;SDS011;37835;53.256;6.456;2024-02-26T07:27:28;5.00;;;3.35;;
51764;SDS011;37835;53.256;6.456;2024-02-26T07:29:57;6.30;;;3.60;;
51764;SDS011;37835;53.256;6.456;2024-02-26T07:32:26;3.35;;;3.00;;
51764;SDS011;37835;53.256;6.456;2024-02-26T07:34:55;4.63;;;3.05;;
51764;SDS011;37835;53.256;6.456;2024-02-26T07:37:21;3.97;;;3.13;;
51764;SDS011;37835;53.256;6.456;2024-02-26T07:39:48;3.95;;;3.50;;
51764;SDS011;37835;53.256;6.456;2024-02-26T07:42:15;6.38;;;3.25;;
51764;SDS011;37835;53.256;6.456;2024-02-26T07:44:43;3.78;;;3.40;;
51764;SDS011;37835;53.256;6.456;2024-02-26T07:47:10;3.30;;;2.92;;
51764;SDS011;37835;53.256;6.456;2024-02-26T07:49:37;3.35;;;3.05;;
51764;SDS011;37835;53.256;6.456;2024-02-26T07:52:03;3.45;;;3.03;;
51764;SDS011;37835;53.256;6.456;2024-02-26T07:54:32;4.65;;;2.95;;
51764;SDS011;37835;53.256;6.456;2024-02-26T07:57:01;4.15;;;2.85;;
51764;SDS011;37835;53.256;6.456;2024-02-26T07:59:30;3.03;;;2.70;;
51764;SDS011;37835;53.256;6.456;2024-02-26T08:01:58;3.20;;;2.72;;
51764;SDS011;37835;53.256;6.456;2024-02-26T08:04:28;3.08;;;2.78;;
51764;SDS011;37835;53.256;6.456;2024-02-26T08:06:55;4.32;;;3.80;;
51764;SDS011;37835;53.256;6.456;2024-02-26T08:09:22;3.13;;;2.85;;
51764;SDS011;37835;53.256;6.456;2024-02-26T08:11:49;4.72;;;2.30;;
51764;SDS011;37835;53.256;6.456;2024-02-26T08:14:18;2.42;;;2.22;;
51764;SDS011;37835;53.256;6.456;2024-02-26T08:16:47;3.95;;;2.30;;
51764;SDS011;37835;53.256;6.456;2024-02-26T08:19:17;3.28;;;2.20;;
51764;SDS011;37835;53.256;6.456;2024-02-26T08:21:44;2.75;;;2.47;;
51764;SDS011;37835;53.256;6.456;2024-02-26T08:24:11;2.30;;;1.90;;
51764;SDS011;37835;53.256;6.456;2024-02-26T08:26:38;3.58;;;2.72;;
51764;SDS011;37835;53.256;6.456;2024-02-26T08:29:06;2.85;;;2.05;;
51764;SDS011;37835;53.256;6.456;2024-02-26T08:31:34;2.28;;;2.15;;
51764;SDS011;37835;53.256;6.456;2024-02-26T08:34:03;2.83;;;2.63;;
51764;SDS011;37835;53.256;6.456;2024-02-26T08:36:36;2.20;;;2.10;;
51764;SDS011;37835;53.256;6.456;2024-02-26T08:39:03;3.17;;;2.45;;
51764;SDS011;37835;53.256;6.456;2024-02-26T08:41:30;2.75;;;2.00;;
51764;SDS011;37835;53.256;6.456;2024-02-26T08:43:57;2.92;;;2.00;;
51764;SDS011;37835;53.256;6.456;2024-02-26T08:46:24;2.60;;;2.15;;
51764;SDS011;37835;53.256;6.456;2024-02-26T08:48:51;2.42;;;1.98;;
51764;SDS011;37835;53.256;6.456;2024-02-26T08:51:18;2.80;;;1.85;;
51764;SDS011;37835;53.256;6.456;2024-02-26T08:53:45;4.88;;;1.95;;
51764;SDS011;37835;53.256;6.456;2024-02-26T08:56:16;3.67;;;1.88;;
51764;SDS011;37835;53.256;6.456;2024-02-26T08:58:44;3.40;;;2.00;;
51764;SDS011;37835;53.256;6.456;2024-02-26T09:01:13;3.03;;;1.90;;
51764;SDS011;37835;53.256;6.456;2024-02-26T09:03:48;4.25;;;1.95;;
51764;SDS011;37835;53.256;6.456;2024-02-26T09:06:19;3.10;;;2.08;;
51764;SDS011;37835;53.256;6.456;2024-02-26T09:08:45;7.93;;;2.85;;
51764;SDS011;37835;53.256;6.456;2024-02-26T09:11:11;3.30;;;2.10;;
51764;SDS011;37835;53.256;6.456;2024-02-26T09:13:36;3.25;;;1.88;;
51764;SDS011;37835;53.256;6.456;2024-02-26T09:16:07;2.25;;;2.10;;
51764;SDS011;37835;53.256;6.456;2024-02-26T09:18:33;3.17;;;2.53;;
51764;SDS011;37835;53.256;6.456;2024-02-26T09:20:59;5.25;;;2.45;;
51764;SDS011;37835;53.256;6.456;2024-02-26T09:23:25;5.53;;;2.13;;
51764;SDS011;37835;53.256;6.456;2024-02-26T09:25:51;5.13;;;2.58;;
51764;SDS011;37835;53.256;6.456;2024-02-26T09:28:17;2.60;;;2.40;;
51764;SDS011;37835;53.256;6.456;2024-02-26T09:30:44;2.88;;;2.20;;
51764;SDS011;37835;53.256;6.456;2024-02-26T09:33:10;4.13;;;2.33;;
51764;SDS011;37835;53.256;6.456;2024-02-26T09:35:36;3.95;;;2.35;;
51764;SDS011;37835;53.256;6.456;2024-02-26T09:38:02;3.53;;;2.22;;
51764;SDS011;37835;53.256;6.456;2024-02-26T09:40:28;2.22;;;2.13;;
51764;SDS011;37835;53.256;6.456;2024-02-26T09:42:58;3.10;;;2.17;;
51764;SDS011;37835;53.256;6.456;2024-02-26T09:45:26;10.00;;;2.78;;
51764;SDS011;37835;53.256;6.456;2024-02-26T09:47:54;3.30;;;2.65;;
51764;SDS011;37835;53.256;6.456;2024-02-26T09:50:21;5.05;;;2.75;;
51764;SDS011;37835;53.256;6.456;2024-02-26T09:52:48;5.53;;;2.65;;
51764;SDS011;37835;53.256;6.456;2024-02-26T09:55:14;4.32;;;2.60;;
51764;SDS011;37835;53.256;6.456;2024-02-26T09:57:44;5.45;;;2.58;;
51764;SDS011;37835;53.256;6.456;2024-02-26T10:00:11;3.92;;;2.80;;
51764;SDS011;37835;53.256;6.456;2024-02-26T10:02:40;3.78;;;2.65;;
51764;SDS011;37835;53.256;6.456;2024-02-26T10:05:07;3.40;;;2.20;;
51764;SDS011;37835;53.256;6.456;2024-02-26T10:07:34;4.00;;;1.52;;
51764;SDS011;37835;53.256;6.456;2024-02-26T10:10:01;3.92;;;1.80;;
51764;SDS011;37835;53.256;6.456;2024-02-26T10:12:27;4.72;;;1.83;;
51764;SDS011;37835;53.256;6.456;2024-02-26T10:14:53;4.72;;;1.92;;
51764;SDS011;37835;53.256;6.456;2024-02-26T10:17:20;3.47;;;1.77;;
51764;SDS011;37835;53.256;6.456;2024-02-26T10:19:46;2.65;;;1.80;;
51764;SDS011;37835;53.256;6.456;2024-02-26T10:22:12;2.33;;;1.80;;
51764;SDS011;37835;53.256;6.456;2024-02-26T10:24:38;4.38;;;1.80;;
51764;SDS011;37835;53.256;6.456;2024-02-26T10:27:04;2.65;;;1.50;;
51764;SDS011;37835;53.256;6.456;2024-02-26T10:29:31;2.15;;;1.35;;
51764;SDS011;37835;53.256;6.456;2024-02-26T10:31:57;5.72;;;1.27;;
51764;SDS011;37835;53.256;6.456;2024-02-26T10:34:23;3.20;;;1.63;;
51764;SDS011;37835;53.256;6.456;2024-02-26T10:36:49;5.78;;;1.88;;
51764;SDS011;37835;53.256;6.456;2024-02-26T10:39:15;5.63;;;1.77;;
51764;SDS011;37835;53.256;6.456;2024-02-26T10:41:42;4.55;;;1.70;;
51764;SDS011;37835;53.256;6.456;2024-02-26T10:44:12;2.78;;;1.77;;
51764;SDS011;37835;53.256;6.456;2024-02-26T10:46:41;3.25;;;2.03;;
51764;SDS011;37835;53.256;6.456;2024-02-26T10:49:14;5.45;;;2.20;;
51764;SDS011;37835;53.256;6.456;2024-02-26T10:51:44;2.95;;;2.30;;
51764;SDS011;37835;53.256;6.456;2024-02-26T10:54:12;3.83;;;2.10;;
51764;SDS011;37835;53.256;6.456;2024-02-26T10:56:38;3.38;;;2.67;;
51764;SDS011;37835;53.256;6.456;2024-02-26T10:59:07;3.53;;;2.60;;
51764;SDS011;37835;53.256;6.456;2024-02-26T11:01:33;5.30;;;2.50;;
51764;SDS011;37835;53.256;6.456;2024-02-26T11:04:03;4.57;;;3.17;;
51764;SDS011;37835;53.256;6.456;2024-02-26T11:06:29;4.93;;;2.97;;
51764;SDS011;37835;53.256;6.456;2024-02-26T11:08:56;6.70;;;2.88;;
51764;SDS011;37835;53.256;6.456;2024-02-26T11:11:22;4.78;;;2.90;;
51764;SDS011;37835;53.256;6.456;2024-02-26T11:13:48;6.30;;;3.72;;
51764;SDS011;37835;53.256;6.456;2024-02-26T11:16:20;3.58;;;3.13;;
51764;SDS011;37835;53.256;6.456;2024-02-26T11:18:47;5.18;;;3.35;;
51764;SDS011;37835;53.256;6.456;2024-02-26T11:21:15;5.78;;;3.45;;
51764;SDS011;37835;53.256;6.456;2024-02-26T11:23:43;4.25;;;3.30;;
51764;SDS011;37835;53.256;6.456;2024-02-26T11:26:09;6.50;;;3.58;;
51764;SDS011;37835;53.256;6.456;2024-02-26T11:28:36;5.82;;;3.83;;
51764;SDS011;37835;53.256;6.456;2024-02-26T11:31:03;7.35;;;4.10;;
51764;SDS011;37835;53.256;6.456;2024-02-26T11:33:29;9.13;;;3.95;;
51764;SDS011;37835;53.256;6.456;2024-02-26T11:35:56;7.00;;;4.22;;
51764;SDS011;37835;53.256;6.456;2024-02-26T11:38:24;7.30;;;4.50;;
51764;SDS011;37835;53.256;6.456;2024-02-26T11:40:50;5.45;;;4.43;;
51764;SDS011;37835;53.256;6.456;2024-02-26T11:43:16;7.55;;;4.75;;
51764;SDS011;37835;53.256;6.456;2024-02-26T11:48:13;7.57;;;4.07;;
51764;SDS011;37835;53.256;6.456;2024-02-26T11:50:40;6.95;;;4.60;;
51764;SDS011;37835;53.256;6.456;2024-02-26T11:53:27;5.95;;;4.43;;
51764;SDS011;37835;53.256;6.456;2024-02-26T11:58:40;4.82;;;4.03;;
51764;SDS011;37835;53.256;6.456;2024-02-26T12:01:35;6.20;;;3.67;;
51764;SDS011;37835;53.256;6.456;2024-02-26T12:03:54;3.90;;;3.55;;
51764;SDS011;37835;53.256;6.456;2024-02-26T12:06:20;7.10;;;3.85;;
51764;SDS011;37835;53.256;6.456;2024-02-26T12:08:46;4.07;;;3.67;;
51764;SDS011;37835;53.256;6.456;2024-02-26T12:11:15;4.40;;;3.67;;
51764;SDS011;37835;53.256;6.456;2024-02-26T12:13:41;5.45;;;4.03;;
51764;SDS011;37835;53.256;6.456;2024-02-26T12:16:08;5.53;;;4.20;;
51764;SDS011;37835;53.256;6.456;2024-02-26T12:18:34;4.78;;;3.53;;
51764;SDS011;37835;53.256;6.456;2024-02-26T12:21:01;4.00;;;3.33;;
51764;SDS011;37835;53.256;6.456;2024-02-26T12:23:27;9.90;;;4.55;;
51764;SDS011;37835;53.256;6.456;2024-02-26T12:25:53;6.43;;;4.47;;
51764;SDS011;37835;53.256;6.456;2024-02-26T12:28:28;6.13;;;5.00;;
51764;SDS011;37835;53.256;6.456;2024-02-26T12:30:57;7.57;;;5.15;;
51764;SDS011;37835;53.256;6.456;2024-02-26T12:33:25;7.32;;;5.28;;
51764;SDS011;37835;53.256;6.456;2024-02-26T12:35:53;5.20;;;4.05;;
51764;SDS011;37835;53.256;6.456;2024-02-26T12:38:20;6.38;;;4.70;;
51764;SDS011;37835;53.256;6.456;2024-02-26T12:40:47;12.93;;;4.93;;
51764;SDS011;37835;53.256;6.456;2024-02-26T12:43:14;7.97;;;4.85;;
51764;SDS011;37835;53.256;6.456;2024-02-26T12:45:40;9.07;;;5.00;;
51764;SDS011;37835;53.256;6.456;2024-02-26T12:48:06;7.25;;;5.70;;
51764;SDS011;37835;53.256;6.456;2024-02-26T12:50:32;7.18;;;5.05;;
51764;SDS011;37835;53.256;6.456;2024-02-26T12:52:59;9.00;;;4.95;;
51764;SDS011;37835;53.256;6.456;2024-02-26T12:55:25;4.63;;;4.22;;
51764;SDS011;37835;53.256;6.456;2024-02-26T12:57:52;5.78;;;4.30;;
51764;SDS011;37835;53.256;6.456;2024-02-26T13:00:26;4.97;;;4.47;;
51764;SDS011;37835;53.256;6.456;2024-02-26T13:02:53;7.03;;;4.80;;
51764;SDS011;37835;53.256;6.456;2024-02-26T13:05:20;8.90;;;5.38;;
51764;SDS011;37835;53.256;6.456;2024-02-26T13:07:47;9.18;;;5.35;;
51764;SDS011;37835;53.256;6.456;2024-02-26T13:10:13;10.35;;;4.90;;
51764;SDS011;37835;53.256;6.456;2024-02-26T13:12:46;6.93;;;5.20;;
51764;SDS011;37835;53.256;6.456;2024-02-26T13:15:16;8.57;;;5.45;;
51764;SDS011;37835;53.256;6.456;2024-02-26T13:17:46;6.07;;;5.47;;
51764;SDS011;37835;53.256;6.456;2024-02-26T13:20:13;6.38;;;5.45;;
51764;SDS011;37835;53.256;6.456;2024-02-26T13:22:49;6.07;;;4.90;;
51764;SDS011;37835;53.256;6.456;2024-02-26T13:25:20;6.65;;;4.65;;
51764;SDS011;37835;53.256;6.456;2024-02-26T13:27:46;5.75;;;5.10;;
51764;SDS011;37835;53.256;6.456;2024-02-26T13:30:12;4.80;;;4.32;;
51764;SDS011;37835;53.256;6.456;2024-02-26T13:32:39;6.43;;;4.85;;
51764;SDS011;37835;53.256;6.456;2024-02-26T13:35:06;7.60;;;5.20;;
51764;SDS011;37835;53.256;6.456;2024-02-26T13:37:33;6.88;;;5.35;;
51764;SDS011;37835;53.256;6.456;2024-02-26T13:40:06;9.05;;;5.35;;
51764;SDS011;37835;53.256;6.456;2024-02-26T13:42:35;7.50;;;4.95;;
51764;SDS011;37835;53.256;6.456;2024-02-26T13:45:05;7.13;;;5.13;;
51764;SDS011;37835;53.256;6.456;2024-02-26T13:47:34;6.72;;;4.07;;
51764;SDS011;37835;53.256;6.456;2024-02-26T13:50:00;6.78;;;4.57;;
51764;SDS011;37835;53.256;6.456;2024-02-26T13:52:26;9.75;;;4.55;;
51764;SDS011;37835;53.256;6.456;2024-02-26T13:54:52;6.30;;;5.07;;
51764;SDS011;37835;53.256;6.456;2024-02-26T13:57:18;6.07;;;4.80;;
51764;SDS011;37835;53.256;6.456;2024-02-26T13:59:45;6.00;;;5.40;;
51764;SDS011;37835;53.256;6.456;2024-02-26T14:02:11;8.00;;;5.85;;
51764;SDS011;37835;53.256;6.456;2024-02-26T14:04:37;6.18;;;5.45;;
51764;SDS011;37835;53.256;6.456;2024-02-26T14:07:03;7.32;;;5.00;;
51764;SDS011;37835;53.256;6.456;2024-02-26T14:09:30;6.30;;;5.43;;
51764;SDS011;37835;53.256;6.456;2024-02-26T14:11:57;5.70;;;5.13;;
51764;SDS011;37835;53.256;6.456;2024-02-26T14:14:23;6.80;;;5.30;;
51764;SDS011;37835;53.256;6.456;2024-02-26T14:16:50;6.95;;;5.05;;
51764;SDS011;37835;53.256;6.456;2024-02-26T14:19:16;7.90;;;5.13;;
51764;SDS011;37835;53.256;6.456;2024-02-26T14:21:42;8.32;;;6.13;;
51764;SDS011;37835;53.256;6.456;2024-02-26T14:24:08;5.68;;;5.10;;
51764;SDS011;37835;53.256;6.456;2024-02-26T14:26:33;6.03;;;5.32;;
51764;SDS011;37835;53.256;6.456;2024-02-26T14:28:59;5.78;;;4.80;;
51764;SDS011;37835;53.256;6.456;2024-02-26T14:31:25;8.40;;;5.40;;
51764;SDS011;37835;53.256;6.456;2024-02-26T14:33:51;5.38;;;4.88;;
51764;SDS011;37835;53.256;6.456;2024-02-26T14:36:20;10.73;;;6.07;;
51764;SDS011;37835;53.256;6.456;2024-02-26T14:38:46;7.03;;;5.38;;
51764;SDS011;37835;53.256;6.456;2024-02-26T14:41:12;7.30;;;5.40;;
51764;SDS011;37835;53.256;6.456;2024-02-26T14:43:37;7.82;;;5.25;;
51764;SDS011;37835;53.256;6.456;2024-02-26T14:46:03;8.38;;;5.88;;